SRC3699 SKAR-SKPS
Flight info
| Callsign | SRC3699 |
|---|---|
| Flight time | 0h 40m |
| Altitude | 34000 |
| Route | TOROL1C TOROL W3 CLO G675 MER |
| Aircraft | C750/M-SBDE3FGHRWXY/S |
Departure
| Time | 2026-05-06 00:36 |
|---|---|
| Airport | El Eden Airport (SKAR) |
Arrival
| Time | 2026-05-06 01:16 |
|---|---|
| Airport | Antonio Nariño Airport (SKPS) |
| Time | Latitude | Longitude | Altitude | Speed | Heading |
|---|---|---|---|---|---|
| 2026-05-05 23:59 | 4.45226 | -75.76766 | 4003 ft | 0 kts | 283° |
| 2026-05-06 00:09 | 4.45226 | -75.76767 | 4005 ft | 0 kts | 283° |
| 2026-05-06 00:10 | 4.45225 | -75.76762 | 4005 ft | 2 kts | 283° |
| 2026-05-06 00:10 | 4.45221 | -75.76747 | 4005 ft | 2 kts | 283° |
| 2026-05-06 00:10 | 4.45220 | -75.76733 | 4005 ft | 2 kts | 259° |
| 2026-05-06 00:10 | 4.45226 | -75.76720 | 4004 ft | 2 kts | 232° |
| 2026-05-06 00:11 | 4.45237 | -75.76711 | 4005 ft | 2 kts | 205° |
| 2026-05-06 00:11 | 4.45252 | -75.76707 | 4004 ft | 2 kts | 193° |
| 2026-05-06 00:11 | 4.45264 | -75.76704 | 4005 ft | 0 kts | 194° |
| 2026-05-06 00:23 | 4.45263 | -75.76704 | 4005 ft | 0 kts | 194° |
| 2026-05-06 00:24 | 4.45262 | -75.76704 | 4005 ft | 0 kts | 189° |
| 2026-05-06 00:24 | 4.45261 | -75.76704 | 4005 ft | 0 kts | 190° |
| 2026-05-06 00:25 | 4.45242 | -75.76703 | 4005 ft | 7 kts | 152° |
| 2026-05-06 00:25 | 4.45209 | -75.76663 | 4005 ft | 6 kts | 120° |
| 2026-05-06 00:25 | 4.45177 | -75.76634 | 4005 ft | 6 kts | 175° |
| 2026-05-06 00:25 | 4.45136 | -75.76643 | 4005 ft | 5 kts | 191° |
| 2026-05-06 00:26 | 4.45094 | -75.76651 | 4005 ft | 6 kts | 195° |
| 2026-05-06 00:26 | 4.45051 | -75.76663 | 4004 ft | 6 kts | 194° |
| 2026-05-06 00:26 | 4.45005 | -75.76673 | 4004 ft | 6 kts | 193° |
| 2026-05-06 00:26 | 4.44958 | -75.76685 | 4003 ft | 6 kts | 202° |
| 2026-05-06 00:27 | 4.44919 | -75.76694 | 4002 ft | 6 kts | 194° |
| 2026-05-06 00:27 | 4.44871 | -75.76705 | 4001 ft | 7 kts | 194° |
| 2026-05-06 00:27 | 4.44815 | -75.76720 | 4000 ft | 8 kts | 192° |
| 2026-05-06 00:27 | 4.44749 | -75.76735 | 3999 ft | 10 kts | 193° |
| 2026-05-06 00:28 | 4.44672 | -75.76754 | 3996 ft | 12 kts | 191° |
| 2026-05-06 00:28 | 4.44586 | -75.76774 | 3994 ft | 12 kts | 191° |
| 2026-05-06 00:28 | 4.44494 | -75.76797 | 3991 ft | 14 kts | 190° |
| 2026-05-06 00:28 | 4.44388 | -75.76824 | 3987 ft | 16 kts | 192° |
| 2026-05-06 00:29 | 4.44353 | -75.76823 | 3986 ft | 1 kts | 165° |
| 2026-05-06 00:29 | 4.44337 | -75.76820 | 3986 ft | 3 kts | 176° |
| 2026-05-06 00:29 | 4.44308 | -75.76831 | 3985 ft | 5 kts | 205° |
| 2026-05-06 00:29 | 4.44264 | -75.76852 | 3984 ft | 8 kts | 198° |
| 2026-05-06 00:30 | 4.44201 | -75.76870 | 3982 ft | 10 kts | 195° |
| 2026-05-06 00:30 | 4.44158 | -75.76857 | 3980 ft | 0 kts | 92° |
| 2026-05-06 00:30 | 4.44160 | -75.76852 | 3979 ft | 1 kts | 16° |
| 2026-05-06 00:30 | 4.44159 | -75.76852 | 3979 ft | 0 kts | 25° |
| 2026-05-06 00:31 | 4.44161 | -75.76852 | 3979 ft | 0 kts | 19° |
| 2026-05-06 00:31 | 4.44197 | -75.76867 | 3982 ft | 10 kts | 323° |
| 2026-05-06 00:32 | 4.44242 | -75.76858 | 3983 ft | 0 kts | 17° |
| 2026-05-06 00:35 | 4.44290 | -75.76846 | 3984 ft | 36 kts | 13° |
| 2026-05-06 00:35 | 4.44825 | -75.76728 | 4000 ft | 98 kts | 24° |
| 2026-05-06 00:35 | 4.45706 | -75.76513 | 4004 ft | 163 kts | 13° |
| 2026-05-06 00:35 | 4.46966 | -75.76212 | 4341 ft | 200 kts | 15° |
| 2026-05-06 00:36 | 4.48301 | -75.75849 | 5159 ft | 192 kts | 15° |
| 2026-05-06 00:36 | 4.49578 | -75.75481 | 5690 ft | 195 kts | 10° |
| 2026-05-06 00:36 | 4.50897 | -75.75671 | 6334 ft | 201 kts | 332° |
| 2026-05-06 00:36 | 4.51811 | -75.76629 | 7284 ft | 189 kts | 296° |
| 2026-05-06 00:37 | 4.52061 | -75.77896 | 7943 ft | 195 kts | 270° |
| 2026-05-06 00:37 | 4.51835 | -75.79244 | 8575 ft | 199 kts | 252° |
| 2026-05-06 00:37 | 4.51328 | -75.80514 | 9286 ft | 197 kts | 248° |
| 2026-05-06 00:37 | 4.50845 | -75.81856 | 9644 ft | 217 kts | 253° |
| 2026-05-06 00:38 | 4.50399 | -75.83385 | 10051 ft | 239 kts | 254° |
| 2026-05-06 00:38 | 4.49929 | -75.85036 | 10619 ft | 256 kts | 255° |
| 2026-05-06 00:38 | 4.49473 | -75.86733 | 11512 ft | 255 kts | 255° |
| 2026-05-06 00:38 | 4.49058 | -75.88460 | 12330 ft | 258 kts | 257° |
| 2026-05-06 00:39 | 4.48676 | -75.90225 | 12990 ft | 267 kts | 259° |
| 2026-05-06 00:39 | 4.48346 | -75.92026 | 14010 ft | 257 kts | 260° |
| 2026-05-06 00:39 | 4.48024 | -75.93888 | 14156 ft | 289 kts | 261° |
| 2026-05-06 00:39 | 4.47711 | -75.95888 | 14863 ft | 293 kts | 261° |
| 2026-05-06 00:40 | 4.47409 | -75.97867 | 15767 ft | 289 kts | 262° |
| 2026-05-06 00:40 | 4.47198 | -75.99889 | 16419 ft | 295 kts | 266° |
| 2026-05-06 00:40 | 4.47081 | -76.01949 | 17076 ft | 298 kts | 268° |
| 2026-05-06 00:40 | 4.46835 | -76.03899 | 18128 ft | 286 kts | 256° |
| 2026-05-06 00:41 | 4.46089 | -76.05801 | 18460 ft | 302 kts | 241° |
| 2026-05-06 00:41 | 4.44903 | -76.07579 | 18972 ft | 310 kts | 229° |
| 2026-05-06 00:41 | 4.43396 | -76.09062 | 19829 ft | 301 kts | 218° |
| 2026-05-06 00:41 | 4.41619 | -76.10256 | 20172 ft | 312 kts | 205° |
| 2026-05-06 00:42 | 4.39630 | -76.11064 | 20839 ft | 310 kts | 193° |
| 2026-05-06 00:42 | 4.37484 | -76.11481 | 21277 ft | 317 kts | 182° |
| 2026-05-06 00:42 | 4.35277 | -76.11448 | 21744 ft | 321 kts | 171° |
| 2026-05-06 00:42 | 4.33100 | -76.11031 | 22541 ft | 313 kts | 161° |
| 2026-05-06 00:43 | 4.31133 | -76.10282 | 23326 ft | 304 kts | 150° |
| 2026-05-06 00:43 | 4.29195 | -76.09250 | 23337 ft | 329 kts | 158° |
| 2026-05-06 00:43 | 4.26860 | -76.08870 | 23460 ft | 350 kts | 180° |
| 2026-05-06 00:43 | 4.24487 | -76.09409 | 24269 ft | 348 kts | 202° |
| 2026-05-06 00:44 | 4.22394 | -76.10597 | 25021 ft | 344 kts | 210° |
| 2026-05-06 00:44 | 4.20403 | -76.11847 | 25867 ft | 336 kts | 211° |
| 2026-05-06 00:44 | 4.18458 | -76.13179 | 26320 ft | 342 kts | 216° |
| 2026-05-06 00:44 | 4.16640 | -76.14706 | 26913 ft | 342 kts | 223° |
| 2026-05-06 00:45 | 4.15032 | -76.16428 | 27509 ft | 342 kts | 230° |
| 2026-05-06 00:45 | 4.13361 | -76.18171 | 27916 ft | 346 kts | 220° |
| 2026-05-06 00:45 | 4.11500 | -76.19707 | 28309 ft | 350 kts | 217° |
| 2026-05-06 00:45 | 4.09612 | -76.21212 | 28958 ft | 347 kts | 217° |
| 2026-05-06 00:46 | 4.07682 | -76.22660 | 29515 ft | 346 kts | 212° |
| 2026-05-06 00:46 | 4.05547 | -76.23842 | 29730 ft | 355 kts | 201° |
| 2026-05-06 00:46 | 4.03184 | -76.24668 | 30025 ft | 360 kts | 193° |
| 2026-05-06 00:46 | 4.00795 | -76.25360 | 30771 ft | 353 kts | 195° |
| 2026-05-06 00:47 | 3.98473 | -76.26054 | 31429 ft | 348 kts | 194° |
| 2026-05-06 00:47 | 3.96128 | -76.26739 | 31696 ft | 356 kts | 197° |
| 2026-05-06 00:47 | 3.93734 | -76.27671 | 31705 ft | 370 kts | 199° |
| 2026-05-06 00:47 | 3.91299 | -76.28459 | 32406 ft | 362 kts | 194° |
| 2026-05-06 00:48 | 3.88893 | -76.29146 | 33193 ft | 354 kts | 194° |
| 2026-05-06 00:48 | 3.86526 | -76.29820 | 33674 ft | 354 kts | 194° |
| 2026-05-06 00:48 | 3.84168 | -76.30481 | 34249 ft | 350 kts | 194° |
| 2026-05-06 00:48 | 3.81740 | -76.31152 | 34196 ft | 366 kts | 194° |
| 2026-05-06 00:49 | 3.79219 | -76.31838 | 34218 ft | 378 kts | 194° |
| 2026-05-06 00:49 | 3.76642 | -76.32540 | 34234 ft | 391 kts | 194° |
| 2026-05-06 00:49 | 3.73941 | -76.33221 | 34202 ft | 403 kts | 189° |
| 2026-05-06 00:49 | 3.71129 | -76.33752 | 34186 ft | 415 kts | 190° |
| 2026-05-06 00:50 | 3.68283 | -76.34360 | 34186 ft | 427 kts | 191° |
| 2026-05-06 00:50 | 3.65322 | -76.35012 | 34163 ft | 438 kts | 191° |
| 2026-05-06 00:50 | 3.62288 | -76.35686 | 34152 ft | 448 kts | 191° |
| 2026-05-06 00:50 | 3.59194 | -76.36378 | 34136 ft | 459 kts | 191° |
| 2026-05-06 00:51 | 3.56065 | -76.37076 | 34109 ft | 468 kts | 191° |
| 2026-05-06 00:51 | 3.49496 | -76.38542 | 34087 ft | 486 kts | 191° |
| 2026-05-06 00:52 | 3.42748 | -76.40050 | 34103 ft | 500 kts | 192° |
| 2026-05-06 00:52 | 3.36124 | -76.42473 | 34152 ft | 514 kts | 204° |
| 2026-05-06 00:53 | 3.29514 | -76.45532 | 34156 ft | 525 kts | 204° |
| 2026-05-06 00:53 | 3.22817 | -76.48633 | 34128 ft | 536 kts | 204° |
| 2026-05-06 00:54 | 3.15944 | -76.51812 | 34164 ft | 542 kts | 204° |
| 2026-05-06 00:54 | 3.09044 | -76.55003 | 34181 ft | 544 kts | 204° |
| 2026-05-06 00:55 | 3.02171 | -76.58181 | 34263 ft | 543 kts | 204° |
| 2026-05-06 00:55 | 2.95249 | -76.61383 | 34236 ft | 543 kts | 204° |
| 2026-05-06 00:56 | 2.88420 | -76.64539 | 34243 ft | 542 kts | 204° |
| 2026-05-06 00:56 | 2.81498 | -76.67740 | 34247 ft | 542 kts | 204° |
| 2026-05-06 00:57 | 2.74691 | -76.70886 | 34215 ft | 542 kts | 204° |
| 2026-05-06 00:57 | 2.67780 | -76.74078 | 34192 ft | 543 kts | 204° |
| 2026-05-06 00:58 | 2.60828 | -76.77293 | 34190 ft | 545 kts | 204° |
| 2026-05-06 00:58 | 2.57470 | -76.78844 | 34163 ft | 509 kts | 204° |
| 2026-05-06 00:58 | 2.54351 | -76.80289 | 33605 ft | 485 kts | 204° |
| 2026-05-06 00:58 | 2.51341 | -76.81685 | 32678 ft | 472 kts | 203° |
| 2026-05-06 00:59 | 2.48410 | -76.83038 | 31815 ft | 459 kts | 203° |
| 2026-05-06 00:59 | 2.45530 | -76.84366 | 30948 ft | 449 kts | 202° |
| 2026-05-06 00:59 | 2.42743 | -76.85654 | 30092 ft | 439 kts | 203° |
| 2026-05-06 00:59 | 2.39984 | -76.86923 | 29234 ft | 430 kts | 202° |
| 2026-05-06 01:00 | 2.37314 | -76.88161 | 28394 ft | 421 kts | 202° |
| 2026-05-06 01:00 | 2.34683 | -76.89373 | 27571 ft | 414 kts | 202° |
| 2026-05-06 01:00 | 2.32098 | -76.90564 | 26763 ft | 407 kts | 203° |
| 2026-05-06 01:00 | 2.29525 | -76.91753 | 25946 ft | 401 kts | 203° |
| 2026-05-06 01:01 | 2.27025 | -76.92908 | 25139 ft | 395 kts | 203° |
| 2026-05-06 01:01 | 2.24558 | -76.94048 | 24336 ft | 390 kts | 203° |
| 2026-05-06 01:01 | 2.22113 | -76.95174 | 23536 ft | 386 kts | 203° |
| 2026-05-06 01:01 | 2.19666 | -76.96307 | 22721 ft | 381 kts | 203° |
| 2026-05-06 01:02 | 2.17293 | -76.97403 | 21938 ft | 377 kts | 203° |
| 2026-05-06 01:02 | 2.14924 | -76.98497 | 21145 ft | 373 kts | 203° |
| 2026-05-06 01:02 | 2.12585 | -76.99577 | 20355 ft | 369 kts | 203° |
| 2026-05-06 01:02 | 2.10266 | -77.00647 | 19580 ft | 365 kts | 203° |
| 2026-05-06 01:03 | 2.07987 | -77.01701 | 18804 ft | 362 kts | 203° |
| 2026-05-06 01:03 | 2.05709 | -77.02748 | 18039 ft | 358 kts | 203° |
| 2026-05-06 01:03 | 2.03468 | -77.03785 | 17279 ft | 355 kts | 203° |
| 2026-05-06 01:03 | 2.01240 | -77.04815 | 16502 ft | 352 kts | 203° |
| 2026-05-06 01:04 | 1.99027 | -77.05840 | 15744 ft | 348 kts | 202° |
| 2026-05-06 01:04 | 1.96830 | -77.06858 | 15007 ft | 345 kts | 202° |
| 2026-05-06 01:04 | 1.94667 | -77.07858 | 14248 ft | 341 kts | 201° |
| 2026-05-06 01:04 | 1.92528 | -77.08845 | 13507 ft | 337 kts | 201° |
| 2026-05-06 01:05 | 1.90417 | -77.09815 | 12778 ft | 333 kts | 201° |
| 2026-05-06 01:05 | 1.88315 | -77.10782 | 12043 ft | 329 kts | 201° |
| 2026-05-06 01:05 | 1.86291 | -77.11714 | 11861 ft | 306 kts | 202° |
| 2026-05-06 01:05 | 1.84447 | -77.12571 | 11838 ft | 280 kts | 202° |
| 2026-05-06 01:06 | 1.82865 | -77.13303 | 11835 ft | 263 kts | 202° |
| 2026-05-06 01:06 | 1.81236 | -77.14056 | 11870 ft | 251 kts | 201° |
| 2026-05-06 01:06 | 1.79741 | -77.14744 | 11858 ft | 242 kts | 201° |
| 2026-05-06 01:06 | 1.78224 | -77.15478 | 11880 ft | 240 kts | 205° |
| 2026-05-06 01:07 | 1.76733 | -77.16286 | 11765 ft | 245 kts | 205° |
| 2026-05-06 01:07 | 1.75218 | -77.17097 | 11645 ft | 251 kts | 205° |
| 2026-05-06 01:07 | 1.73663 | -77.17931 | 11537 ft | 255 kts | 206° |
| 2026-05-06 01:07 | 1.72080 | -77.18780 | 11401 ft | 260 kts | 205° |
| 2026-05-06 01:08 | 1.70466 | -77.19641 | 11272 ft | 263 kts | 205° |
| 2026-05-06 01:08 | 1.68826 | -77.20519 | 11141 ft | 267 kts | 206° |
| 2026-05-06 01:08 | 1.67176 | -77.21405 | 11011 ft | 269 kts | 206° |
| 2026-05-06 01:08 | 1.65510 | -77.22295 | 10886 ft | 272 kts | 206° |
| 2026-05-06 01:09 | 1.63840 | -77.23189 | 10761 ft | 274 kts | 206° |
| 2026-05-06 01:09 | 1.62143 | -77.24101 | 10630 ft | 276 kts | 206° |
| 2026-05-06 01:09 | 1.60435 | -77.25011 | 10509 ft | 277 kts | 206° |
| 2026-05-06 01:09 | 1.58736 | -77.25920 | 10391 ft | 278 kts | 206° |
| 2026-05-06 01:10 | 1.57024 | -77.26836 | 10267 ft | 279 kts | 207° |
| 2026-05-06 01:10 | 1.55287 | -77.27769 | 10092 ft | 282 kts | 206° |
| 2026-05-06 01:10 | 1.53545 | -77.28701 | 9896 ft | 285 kts | 206° |
| 2026-05-06 01:10 | 1.51774 | -77.29615 | 9693 ft | 287 kts | 205° |
| 2026-05-06 01:11 | 1.49951 | -77.30521 | 9492 ft | 289 kts | 205° |
| 2026-05-06 01:11 | 1.48160 | -77.31423 | 9295 ft | 291 kts | 205° |
| 2026-05-06 01:11 | 1.46330 | -77.32337 | 9092 ft | 293 kts | 205° |
| 2026-05-06 01:11 | 1.44503 | -77.33253 | 8887 ft | 294 kts | 205° |
| 2026-05-06 01:12 | 1.42676 | -77.34172 | 8781 ft | 291 kts | 206° |
| 2026-05-06 01:12 | 1.40890 | -77.35064 | 8781 ft | 278 kts | 205° |
| 2026-05-06 01:12 | 1.39233 | -77.35895 | 8770 ft | 255 kts | 206° |
| 2026-05-06 01:12 | 1.37671 | -77.36608 | 8758 ft | 232 kts | 193° |
| 2026-05-06 01:13 | 1.36111 | -77.36546 | 8408 ft | 224 kts | 155° |
| 2026-05-06 01:13 | 1.34873 | -77.35700 | 8146 ft | 210 kts | 136° |
| 2026-05-06 01:13 | 1.34044 | -77.34541 | 7792 ft | 200 kts | 111° |
| 2026-05-06 01:13 | 1.33784 | -77.33227 | 7488 ft | 191 kts | 89° |
| 2026-05-06 01:14 | 1.34545 | -77.31116 | 6970 ft | 149 kts | 52° |
| 2026-05-06 01:14 | 1.35308 | -77.30414 | 6760 ft | 152 kts | 35° |
| 2026-05-06 01:14 | 1.36285 | -77.29963 | 6740 ft | 156 kts | 17° |
| 2026-05-06 01:15 | 1.37361 | -77.29721 | 6462 ft | 163 kts | 17° |
| 2026-05-06 01:15 | 1.38452 | -77.29427 | 6064 ft | 159 kts | 17° |
| 2026-05-06 01:15 | 1.39492 | -77.29143 | 5936 ft | 142 kts | 15° |
| 2026-05-06 01:15 | 1.40282 | -77.28934 | 5881 ft | 83 kts | 15° |
| 2026-05-06 01:16 | 1.40555 | -77.28863 | 5861 ft | 19 kts | 14° |
| 2026-05-06 01:16 | 1.40621 | -77.28851 | 5858 ft | 7 kts | 101° |
| 2026-05-06 01:16 | 1.40582 | -77.28851 | 5859 ft | 5 kts | 199° |
| 2026-05-06 01:16 | 1.40543 | -77.28864 | 5861 ft | 5 kts | 196° |
| 2026-05-06 01:17 | 1.40508 | -77.28874 | 5864 ft | 6 kts | 195° |
| 2026-05-06 01:17 | 1.40451 | -77.28889 | 5869 ft | 10 kts | 195° |
| 2026-05-06 01:17 | 1.40368 | -77.28912 | 5875 ft | 14 kts | 195° |
| 2026-05-06 01:17 | 1.40258 | -77.28941 | 5883 ft | 18 kts | 194° |
| 2026-05-06 01:18 | 1.40126 | -77.28976 | 5893 ft | 20 kts | 195° |
| 2026-05-06 01:18 | 1.40005 | -77.29008 | 5902 ft | 14 kts | 195° |
| 2026-05-06 01:18 | 1.39926 | -77.29029 | 5908 ft | 9 kts | 194° |
| 2026-05-06 01:18 | 1.39881 | -77.29041 | 5911 ft | 4 kts | 194° |
| 2026-05-06 01:19 | 1.39864 | -77.29045 | 5912 ft | 4 kts | 195° |
| 2026-05-06 01:19 | 1.39809 | -77.29059 | 5916 ft | 12 kts | 194° |
| 2026-05-06 01:19 | 1.39722 | -77.29082 | 5922 ft | 9 kts | 194° |
| 2026-05-06 01:19 | 1.39675 | -77.29080 | 5924 ft | 5 kts | 125° |
| 2026-05-06 01:20 | 1.39662 | -77.29041 | 5925 ft | 5 kts | 107° |
| 2026-05-06 01:20 | 1.39642 | -77.29021 | 5926 ft | 2 kts | 178° |
| 2026-05-06 01:20 | 1.39632 | -77.29023 | 5926 ft | 2 kts | 198° |
| 2026-05-06 01:20 | 1.39597 | -77.29034 | 5928 ft | 6 kts | 196° |
| 2026-05-06 01:21 | 1.39559 | -77.29042 | 5930 ft | 3 kts | 170° |
| 2026-05-06 01:21 | 1.39543 | -77.29025 | 5930 ft | 5 kts | 105° |
| 2026-05-06 01:21 | 1.39538 | -77.29003 | 5926 ft | 0 kts | 103° |